Time;durP1;ratioP1;P1;durP2;ratioP2;P2;SDS_P1;SDS_P2;PMS_P1;PMS_P2;Temp;Humidity;BMP_temperature;BMP_pressure;BME280_temperature;BME280_humidity;BME280_pressure;Samples;Min_cycle;Max_cycle;Signal;HPM_P1;HPM_P2
2022/08/14 00:01:46;;;;;;;9.65;5.00;;;;;;;;;;5019170;28;89521;-69
2022/08/14 00:04:21;;;;;;;8.45;4.30;;;;;;;;;;5018580;28;89833;-70
2022/08/14 00:07:04;;;;;;;6.20;5.45;;;;;;;;;;5022212;28;88071;-69
2022/08/14 00:09:32;;;;;;;9.35;5.00;;;;;;;;;;5019136;28;87755;-69
2022/08/14 00:12:05;;;;;;;7.05;4.95;;;;;;;;;;5019467;28;88938;-69
2022/08/14 00:14:49;;;;;;;5.68;4.90;;;;;;;;;;5018916;28;88674;-69
2022/08/14 00:17:20;;;;;;;7.13;5.45;;;;;;;;;;5018047;28;90458;-69
2022/08/14 00:19:47;;;;;;;4.93;4.47;;;;;;;;;;5018817;28;88054;-69
2022/08/14 00:22:17;;;;;;;10.50;5.00;;;;;;;;;;5016979;28;88700;-69
2022/08/14 00:25:04;;;;;;;6.25;5.75;;;;;;;;;;4998232;28;89041;-69
2022/08/14 00:27:31;;;;;;;6.07;5.53;;;;;;;;;;5002056;28;88017;-69
2022/08/14 00:30:07;;;;;;;5.22;4.88;;;;;;;;;;4998994;28;88995;-69
2022/08/14 00:32:36;;;;;;;8.98;5.82;;;;;;;;;;4997831;28;87938;-69
2022/08/14 00:35:22;;;;;;;7.03;4.93;;;;;;;;;;4999326;28;89518;-69
2022/08/14 00:38:09;;;;;;;6.95;5.35;;;;;;;;;;4997771;28;89172;-69
2022/08/14 00:40:35;;;;;;;7.18;5.85;;;;;;;;;;4998892;28;87998;-69
2022/08/14 00:43:02;;;;;;;8.95;5.53;;;;;;;;;;4998227;28;89888;-69
2022/08/14 00:45:29;;;;;;;5.82;5.38;;;;;;;;;;4997848;28;88134;-69
2022/08/14 00:47:57;;;;;;;9.40;5.70;;;;;;;;;;4998426;28;88030;-69
2022/08/14 00:50:27;;;;;;;7.10;5.43;;;;;;;;;;5001539;28;88793;-69
2022/08/14 00:52:54;;;;;;;7.80;5.03;;;;;;;;;;5006430;28;89556;-69
2022/08/14 00:55:21;;;;;;;5.55;4.97;;;;;;;;;;5017786;28;88599;-69
2022/08/14 01:00:33;;;;;;;6.35;5.40;;;;;;;;;;5018230;28;87821;-69
2022/08/14 01:03:08;;;;;;;6.65;5.55;;;;;;;;;;5018251;28;87970;-69
2022/08/14 01:05:35;;;;;;;6.10;5.45;;;;;;;;;;5017432;28;89200;-69
2022/08/14 01:08:21;;;;;;;7.15;5.30;;;;;;;;;;5017999;28;88727;-69
2022/08/14 01:11:07;;;;;;;9.05;5.93;;;;;;;;;;5018381;28;89318;-69
2022/08/14 01:13:36;;;;;;;10.63;5.47;;;;;;;;;;5020583;28;88001;-69
2022/08/14 01:16:12;;;;;;;6.03;5.63;;;;;;;;;;5018438;28;88679;-69
2022/08/14 01:21:35;;;;;;;10.20;6.10;;;;;;;;;;5017330;28;88803;-70
2022/08/14 01:24:14;;;;;;;8.88;6.07;;;;;;;;;;4998286;28;89459;-69
2022/08/14 01:26:50;;;;;;;6.15;5.75;;;;;;;;;;4997662;28;89340;-69
2022/08/14 01:29:18;;;;;;;9.13;5.60;;;;;;;;;;4997709;28;87983;-69
2022/08/14 01:32:04;;;;;;;9.13;5.50;;;;;;;;;;4997956;28;89582;-69
2022/08/14 01:34:35;;;;;;;7.17;6.33;;;;;;;;;;4996457;28;89546;-69
2022/08/14 01:37:24;;;;;;;13.85;5.90;;;;;;;;;;5000630;28;88034;-69
2022/08/14 01:39:51;;;;;;;7.68;6.30;;;;;;;;;;4997264;28;88781;-69
2022/08/14 01:42:20;;;;;;;7.10;5.82;;;;;;;;;;4996970;28;88080;-69
2022/08/14 01:45:04;;;;;;;10.93;6.17;;;;;;;;;;4997623;28;88678;-70
2022/08/14 01:47:31;;;;;;;6.82;6.30;;;;;;;;;;4997405;28;88867;-69
2022/08/14 01:50:04;;;;;;;8.30;6.10;;;;;;;;;;4997063;28;88636;-69
2022/08/14 01:52:32;;;;;;;12.05;6.45;;;;;;;;;;5007192;28;89732;-69
2022/08/14 01:55:18;;;;;;;9.82;6.20;;;;;;;;;;5016869;28;88892;-69
2022/08/14 01:57:45;;;;;;;7.63;6.93;;;;;;;;;;5017713;28;88471;-69
2022/08/14 02:00:27;;;;;;;9.95;6.28;;;;;;;;;;5020085;28;88866;-69
2022/08/14 02:02:57;;;;;;;7.43;6.82;;;;;;;;;;5016243;28;88807;-69
2022/08/14 02:05:28;;;;;;;8.18;7.45;;;;;;;;;;5017380;28;88018;-69
2022/08/14 02:08:00;;;;;;;8.77;7.15;;;;;;;;;;5019476;28;90064;-69
2022/08/14 02:10:35;;;;;;;11.90;6.28;;;;;;;;;;5020335;28;88801;-69
2022/08/14 02:13:13;;;;;;;7.68;7.03;;;;;;;;;;5020919;28;88595;-69
2022/08/14 02:15:41;;;;;;;7.60;7.10;;;;;;;;;;5020070;28;87789;-69
2022/08/14 02:18:09;;;;;;;8.77;6.93;;;;;;;;;;5020534;28;87772;-69
2022/08/14 02:20:38;;;;;;;9.55;7.05;;;;;;;;;;5020543;28;88065;-69
2022/08/14 02:23:05;;;;;;;7.38;6.70;;;;;;;;;;5009424;28;88872;-69
2022/08/14 02:25:33;;;;;;;7.90;7.18;;;;;;;;;;5009015;28;88988;-69
2022/08/14 02:28:00;;;;;;;9.02;7.30;;;;;;;;;;5020332;28;89458;-69
2022/08/14 02:30:47;;;;;;;10.00;7.43;;;;;;;;;;5019323;28;88030;-69
2022/08/14 02:33:17;;;;;;;8.20;7.45;;;;;;;;;;5020545;28;88850;-69
2022/08/14 02:35:44;;;;;;;8.23;7.32;;;;;;;;;;5020017;28;89859;-69
2022/08/14 02:38:21;;;;;;;8.48;7.57;;;;;;;;;;5019751;28;88949;-69
2022/08/14 02:40:59;;;;;;;8.02;7.40;;;;;;;;;;5020275;28;89358;-69
2022/08/14 02:43:28;;;;;;;7.72;6.93;;;;;;;;;;5023892;28;88083;-69
2022/08/14 02:46:11;;;;;;;10.23;7.00;;;;;;;;;;5019221;28;88599;-69
2022/08/14 02:48:39;;;;;;;7.70;7.00;;;;;;;;;;5019703;28;87996;-69
2022/08/14 02:51:25;;;;;;;10.68;6.78;;;;;;;;;;5016222;28;88786;-69
2022/08/14 02:53:57;;;;;;;9.20;6.75;;;;;;;;;;4999962;28;89438;-69
2022/08/14 02:56:26;;;;;;;12.93;7.38;;;;;;;;;;5000090;28;89099;-69
2022/08/14 02:59:12;;;;;;;7.35;6.65;;;;;;;;;;4999631;28;87996;-69
2022/08/14 03:01:39;;;;;;;7.47;6.80;;;;;;;;;;4998463;28;90931;-69
2022/08/14 03:04:15;;;;;;;8.80;7.55;;;;;;;;;;5000346;28;88654;-69
2022/08/14 03:06:44;;;;;;;10.15;6.85;;;;;;;;;;5001940;28;88084;-69
2022/08/14 03:09:30;;;;;;;13.48;7.05;;;;;;;;;;5000393;28;88165;-69
2022/08/14 03:12:16;;;;;;;7.22;6.72;;;;;;;;;;4999278;28;88052;-69
2022/08/14 03:14:58;;;;;;;7.43;6.90;;;;;;;;;;4999827;28;88654;-69
2022/08/14 03:17:25;;;;;;;8.07;7.47;;;;;;;;;;4998919;28;89905;-69
2022/08/14 03:19:57;;;;;;;7.80;6.68;;;;;;;;;;4998757;28;88738;-69
2022/08/14 03:22:24;;;;;;;8.43;7.18;;;;;;;;;;5009849;28;89295;-69
2022/08/14 03:24:53;;;;;;;7.68;6.97;;;;;;;;;;5019563;28;88882;-69
2022/08/14 03:27:19;;;;;;;10.98;7.78;;;;;;;;;;5019214;28;87988;-69
2022/08/14 03:29:51;;;;;;;;;;;;;;;;;;5022417;28;88597;-69
2022/08/14 03:32:19;;;;;;;8.60;7.70;;;;;;;;;;5019934;28;118355;-69
2022/08/14 03:34:55;;;;;;;9.45;8.45;;;;;;;;;;5019365;28;88757;-69
2022/08/14 03:37:25;;;;;;;10.18;7.95;;;;;;;;;;5019799;28;90096;-69
2022/08/14 03:40:11;;;;;;;12.52;7.57;;;;;;;;;;5019764;28;88046;-69
2022/08/14 03:42:43;;;;;;;;;;;;;;;;;;5019090;28;88932;-69
2022/08/14 03:45:10;;;;;;;8.77;7.93;;;;;;;;;;5019893;28;119688;-69
2022/08/14 03:47:52;;;;;;;8.63;7.80;;;;;;;;;;5018387;28;88314;-69
2022/08/14 03:50:24;;;;;;;10.20;8.45;;;;;;;;;;5019262;28;88926;-69
2022/08/14 03:52:56;;;;;;;;;;;;;;;;;;5005242;28;89194;-69
2022/08/14 03:55:27;;;;;;;8.95;8.20;;;;;;;;;;4998672;28;117239;-69
2022/08/14 03:57:55;;;;;;;9.45;8.55;;;;;;;;;;4998935;28;89029;-69
2022/08/14 04:00:22;;;;;;;9.13;8.32;;;;;;;;;;4999991;28;87925;-69
2022/08/14 04:03:09;;;;;;;9.23;8.35;;;;;;;;;;4998467;28;87944;-69
2022/08/14 04:05:37;;;;;;;8.75;8.05;;;;;;;;;;4998912;28;90433;-69
2022/08/14 04:08:13;;;;;;;9.55;8.60;;;;;;;;;;4998789;28;88835;-69
2022/08/14 04:10:56;;;;;;;9.57;8.68;;;;;;;;;;4998762;28;89473;-69
2022/08/14 04:13:26;;;;;;;9.68;8.80;;;;;;;;;;4998911;28;89035;-69
2022/08/14 04:16:00;;;;;;;10.35;9.38;;;;;;;;;;5000638;28;88668;-69
2022/08/14 04:18:31;;;;;;;9.25;8.45;;;;;;;;;;4998811;28;88734;-69
2022/08/14 04:20:59;;;;;;;12.77;9.57;;;;;;;;;;4998529;28;88166;-71
2022/08/14 04:23:26;;;;;;;10.52;9.63;;;;;;;;;;4998268;28;88688;-69
2022/08/14 04:25:59;;;;;;;12.95;9.05;;;;;;;;;;4999186;28;89127;-69
2022/08/14 04:28:25;;;;;;;11.32;10.43;;;;;;;;;;4998760;28;88449;-69
2022/08/14 04:31:12;;;;;;;10.07;9.27;;;;;;;;;;4996415;28;89309;-69
2022/08/14 04:33:40;;;;;;;10.55;9.52;;;;;;;;;;4997753;28;89529;-69
2022/08/14 04:36:07;;;;;;;10.85;9.82;;;;;;;;;;4998737;28;87984;-69
2022/08/14 04:44:22;;;;;;;10.93;9.55;;;;;;;;;;4996829;28;89365;-69
2022/08/14 04:49:49;;;;;;;10.88;9.88;;;;;;;;;;4998032;28;88352;-69
2022/08/14 04:52:23;;;;;;;12.13;10.85;;;;;;;;;;5012459;28;89726;-69
2022/08/14 04:54:50;;;;;;;11.52;10.35;;;;;;;;;;5016947;28;89100;-69
2022/08/14 04:57:17;;;;;;;13.05;10.90;;;;;;;;;;5017362;28;90134;-69
2022/08/14 04:59:44;;;;;;;13.82;10.60;;;;;;;;;;5018982;28;89578;-69
2022/08/14 05:02:12;;;;;;;13.80;10.13;;;;;;;;;;5017449;28;89807;-69
2022/08/14 05:04:39;;;;;;;11.10;10.02;;;;;;;;;;5016667;28;89336;-70
2022/08/14 05:07:22;;;;;;;15.73;10.93;;;;;;;;;;5015489;28;89899;-70
2022/08/14 05:10:09;;;;;;;15.32;10.70;;;;;;;;;;4997466;28;90003;-69
2022/08/14 05:12:41;;;;;;;14.80;10.02;;;;;;;;;;4996187;28;89439;-69
2022/08/14 05:15:29;;;;;;;14.93;10.25;;;;;;;;;;4996942;28;88989;-70
2022/08/14 05:17:58;;;;;;;11.23;10.32;;;;;;;;;;4997171;28;89914;-69
2022/08/14 05:20:45;;;;;;;11.07;10.05;;;;;;;;;;4995862;28;89607;-69
2022/08/14 05:23:33;;;;;;;11.25;10.13;;;;;;;;;;5020177;28;89707;-69
2022/08/14 05:26:04;;;;;;;13.63;10.98;;;;;;;;;;5016237;28;89992;-69
2022/08/14 05:28:32;;;;;;;11.48;10.57;;;;;;;;;;5016515;28;88898;-69
2022/08/14 05:31:00;;;;;;;11.32;10.25;;;;;;;;;;5016905;28;89880;-69
2022/08/14 05:33:29;;;;;;;11.27;10.40;;;;;;;;;;5016048;28;89285;-70
2022/08/14 05:35:59;;;;;;;11.07;10.05;;;;;;;;;;5016621;28;88927;-70
2022/08/14 05:38:32;;;;;;;12.93;10.73;;;;;;;;;;5016841;28;88958;-69
2022/08/14 05:41:02;;;;;;;12.63;11.25;;;;;;;;;;5015907;28;89192;-69
2022/08/14 05:43:33;;;;;;;13.73;9.85;;;;;;;;;;5016911;28;88921;-69
2022/08/14 05:46:11;;;;;;;11.52;10.38;;;;;;;;;;5019415;28;90104;-69
2022/08/14 05:48:41;;;;;;;10.75;9.75;;;;;;;;;;5015682;28;88971;-69
2022/08/14 05:51:08;;;;;;;13.05;10.32;;;;;;;;;;5010529;28;91083;-70
2022/08/14 05:53:35;;;;;;;11.23;10.15;;;;;;;;;;4996509;28;90488;-70
2022/08/14 05:56:07;;;;;;;14.30;10.43;;;;;;;;;;4995677;28;89769;-70
2022/08/14 05:58:33;;;;;;;12.40;10.23;;;;;;;;;;4996561;28;90082;-69
2022/08/14 06:01:08;;;;;;;11.88;10.70;;;;;;;;;;4995829;28;89492;-70
2022/08/14 06:03:35;;;;;;;13.10;10.48;;;;;;;;;;4996301;28;88937;-69
2022/08/14 06:06:05;;;;;;;15.30;10.25;;;;;;;;;;4996556;28;89827;-70
2022/08/14 06:08:32;;;;;;;11.55;10.10;;;;;;;;;;4998461;28;89557;-69
2022/08/14 06:11:07;;;;;;;15.90;9.65;;;;;;;;;;4996487;28;89859;-69
2022/08/14 06:13:36;;;;;;;11.32;10.40;;;;;;;;;;4997393;28;89753;-69
2022/08/14 06:16:12;;;;;;;10.82;9.80;;;;;;;;;;4995298;28;89735;-69
2022/08/14 06:18:44;;;;;;;25.05;10.50;;;;;;;;;;4997181;28;89862;-70
2022/08/14 06:21:10;;;;;;;11.05;10.05;;;;;;;;;;4996030;28;90675;-69
2022/08/14 06:23:38;;;;;;;12.18;11.00;;;;;;;;;;4994975;28;89739;-69
2022/08/14 06:26:05;;;;;;;14.07;10.93;;;;;;;;;;4996250;28;91015;-69
2022/08/14 06:28:31;;;;;;;12.43;10.93;;;;;;;;;;4996059;28;89865;-69
2022/08/14 06:30:59;;;;;;;22.42;10.13;;;;;;;;;;4998398;28;89674;-70
2022/08/14 06:33:25;;;;;;;10.15;9.35;;;;;;;;;;4996839;28;90229;-69
2022/08/14 06:36:12;;;;;;;11.40;9.98;;;;;;;;;;4996687;28;89062;-69
2022/08/14 06:38:43;;;;;;;11.57;10.53;;;;;;;;;;4995949;28;89016;-69
2022/08/14 06:41:10;;;;;;;9.95;8.90;;;;;;;;;;4995785;28;89460;-69
2022/08/14 06:43:43;;;;;;;11.25;10.15;;;;;;;;;;4996062;28;88995;-69
2022/08/14 06:46:10;;;;;;;11.82;10.35;;;;;;;;;;4995640;28;89662;-69
2022/08/14 06:48:48;;;;;;;17.77;10.00;;;;;;;;;;4996076;28;89270;-69
2022/08/14 06:51:15;;;;;;;16.42;10.57;;;;;;;;;;4995391;28;90116;-69
2022/08/14 06:53:41;;;;;;;10.95;9.70;;;;;;;;;;4999932;28;89219;-69
2022/08/14 06:56:08;;;;;;;11.25;10.25;;;;;;;;;;5000280;28;89108;-70
2022/08/14 06:58:34;;;;;;;17.40;8.93;;;;;;;;;;4998752;28;89561;-70
2022/08/14 07:06:50;;;;;;;11.45;10.40;;;;;;;;;;5000224;28;88856;-70
2022/08/14 07:09:21;;;;;;;9.07;8.37;;;;;;;;;;4999055;28;89263;-70
2022/08/14 07:11:48;;;;;;;10.25;9.32;;;;;;;;;;4999027;28;88743;-70
2022/08/14 07:14:15;;;;;;;10.48;9.68;;;;;;;;;;5002950;28;88049;-70
2022/08/14 07:16:41;;;;;;;9.93;9.02;;;;;;;;;;4999769;28;90095;-70
2022/08/14 07:19:08;;;;;;;15.30;9.73;;;;;;;;;;4999109;28;88824;-70
2022/08/14 07:21:36;;;;;;;12.90;9.05;;;;;;;;;;5007543;28;88731;-70
2022/08/14 07:24:03;;;;;;;12.02;9.23;;;;;;;;;;5020861;28;88127;-70
2022/08/14 07:26:29;;;;;;;14.15;8.57;;;;;;;;;;5019179;28;87985;-70
2022/08/14 07:28:56;;;;;;;16.23;8.30;;;;;;;;;;5019584;28;88676;-70
2022/08/14 07:31:22;;;;;;;9.32;7.80;;;;;;;;;;5019309;28;89358;-70
2022/08/14 07:33:48;;;;;;;9.13;8.38;;;;;;;;;;5018536;28;88779;-70
2022/08/14 07:36:17;;;;;;;13.73;7.57;;;;;;;;;;5022432;28;88643;-70
2022/08/14 07:38:59;;;;;;;19.02;8.93;;;;;;;;;;5019536;28;88023;-70
2022/08/14 07:41:25;;;;;;;34.97;8.57;;;;;;;;;;5019055;28;89585;-70
2022/08/14 07:44:00;;;;;;;12.18;8.45;;;;;;;;;;5009361;28;88945;-70
2022/08/14 07:46:46;;;;;;;10.85;7.57;;;;;;;;;;4998041;28;88067;-70
2022/08/14 07:49:12;;;;;;;8.40;6.97;;;;;;;;;;4999901;28;88547;-70
2022/08/14 07:51:43;;;;;;;11.07;6.83;;;;;;;;;;5003105;28;88873;-70
2022/08/14 07:54:10;;;;;;;6.93;6.43;;;;;;;;;;5018685;28;88894;-70
2022/08/14 07:56:37;;;;;;;13.70;6.22;;;;;;;;;;5018644;28;89399;-70
2022/08/14 07:59:16;;;;;;;12.20;6.88;;;;;;;;;;5022206;28;87982;-70
2022/08/14 08:01:43;;;;;;;12.75;7.03;;;;;;;;;;5018051;28;89579;-70
2022/08/14 08:04:20;;;;;;;9.52;6.55;;;;;;;;;;5019339;28;88781;-70
2022/08/14 08:06:51;;;;;;;6.75;6.13;;;;;;;;;;5019129;28;88849;-70
2022/08/14 08:09:20;;;;;;;6.45;5.85;;;;;;;;;;5018108;28;89751;-70
2022/08/14 08:11:48;;;;;;;5.75;5.22;;;;;;;;;;5018822;28;90031;-70
2022/08/14 08:14:20;;;;;;;8.63;6.55;;;;;;;;;;5008492;28;87618;-70
2022/08/14 08:16:47;;;;;;;7.00;6.32;;;;;;;;;;4997915;28;88809;-70
2022/08/14 08:19:17;;;;;;;8.65;6.35;;;;;;;;;;4999137;28;90121;-70
2022/08/14 08:21:45;;;;;;;6.72;6.25;;;;;;;;;;5000669;28;89020;-70
2022/08/14 08:24:12;;;;;;;21.92;5.60;;;;;;;;;;4999068;28;89777;-70
2022/08/14 08:26:46;;;;;;;14.85;6.60;;;;;;;;;;4998551;28;88020;-70
2022/08/14 08:29:17;;;;;;;8.82;6.57;;;;;;;;;;4998160;28;88837;-70
2022/08/14 08:31:49;;;;;;;6.55;5.93;;;;;;;;;;4998450;28;89705;-70
2022/08/14 08:34:18;;;;;;;6.93;5.88;;;;;;;;;;4998846;28;88546;-70
2022/08/14 08:36:45;;;;;;;6.80;5.88;;;;;;;;;;5014125;28;87877;-70
2022/08/14 08:39:12;;;;;;;6.35;5.85;;;;;;;;;;5019193;28;88847;-70
2022/08/14 08:41:46;;;;;;;5.93;5.10;;;;;;;;;;5018383;28;88779;-70
2022/08/14 08:44:19;;;;;;;10.88;6.07;;;;;;;;;;5020818;28;89107;-70
2022/08/14 08:47:00;;;;;;;5.95;5.32;;;;;;;;;;5016822;28;89218;-70
2022/08/14 08:49:41;;;;;;;10.63;5.65;;;;;;;;;;5018654;28;90313;-70
2022/08/14 08:52:26;;;;;;;5.80;5.25;;;;;;;;;;5018441;28;89002;-70
2022/08/14 08:54:57;;;;;;;6.63;5.53;;;;;;;;;;5016504;28;88036;-70
2022/08/14 08:57:24;;;;;;;6.97;5.32;;;;;;;;;;4998888;28;89652;-70
2022/08/14 08:59:50;;;;;;;12.77;5.45;;;;;;;;;;4997870;28;88749;-70
2022/08/14 09:02:23;;;;;;;7.43;5.78;;;;;;;;;;4998450;28;87913;-70
2022/08/14 09:04:59;;;;;;;6.22;5.40;;;;;;;;;;5000470;28;89086;-70
2022/08/14 09:07:26;;;;;;;8.93;5.60;;;;;;;;;;4998365;28;88056;-70
2022/08/14 09:09:55;;;;;;;6.28;5.03;;;;;;;;;;4997733;28;89527;-69
2022/08/14 09:12:27;;;;;;;9.35;5.55;;;;;;;;;;4997087;28;90171;-69
2022/08/14 09:14:58;;;;;;;8.25;5.90;;;;;;;;;;4998076;28;89644;-70
2022/08/14 09:17:25;;;;;;;14.18;5.10;;;;;;;;;;4998001;28;88634;-70
2022/08/14 09:19:52;;;;;;;5.47;5.13;;;;;;;;;;4996930;28;88904;-70
2022/08/14 09:22:18;;;;;;;6.63;6.13;;;;;;;;;;4998092;28;88793;-69
2022/08/14 09:25:05;;;;;;;9.90;5.78;;;;;;;;;;4997225;28;89611;-69
2022/08/14 09:27:33;;;;;;;11.00;5.57;;;;;;;;;;5000640;28;89361;-69
2022/08/14 09:30:00;;;;;;;6.63;5.82;;;;;;;;;;4998392;28;89569;-69
2022/08/14 09:32:31;;;;;;;10.68;5.65;;;;;;;;;;4997145;28;87856;-69
2022/08/14 09:35:23;;;;;;;8.87;5.37;;;;;;;;;;4998095;28;87835;-69
2022/08/14 09:37:58;;;;;;;5.47;5.03;;;;;;;;;;4997299;28;88649;-70
2022/08/14 09:40:40;;;;;;;6.60;5.70;;;;;;;;;;4997140;28;88949;-70
2022/08/14 09:43:16;;;;;;;12.23;5.55;;;;;;;;;;4997744;28;88766;-70
2022/08/14 09:45:48;;;;;;;8.60;5.07;;;;;;;;;;4997366;28;88521;-70
2022/08/14 09:48:22;;;;;;;10.07;4.63;;;;;;;;;;4997389;28;89577;-70
2022/08/14 09:50:56;;;;;;;5.18;4.75;;;;;;;;;;5000602;28;88005;-70
2022/08/14 09:53:33;;;;;;;11.65;5.43;;;;;;;;;;5016261;28;89676;-70
2022/08/14 09:56:19;;;;;;;6.05;5.00;;;;;;;;;;5018108;28;88741;-70
2022/08/14 09:58:57;;;;;;;12.55;6.53;;;;;;;;;;5017120;28;87973;-70
2022/08/14 10:01:34;;;;;;;7.38;5.00;;;;;;;;;;5016208;28;89882;-70
2022/08/14 10:04:05;;;;;;;5.07;4.60;;;;;;;;;;5017153;28;88630;-70
2022/08/14 10:06:46;;;;;;;6.55;4.93;;;;;;;;;;5017194;28;89280;-70
2022/08/14 10:09:12;;;;;;;8.55;4.55;;;;;;;;;;5016650;28;89269;-70
2022/08/14 10:11:52;;;;;;;10.45;4.43;;;;;;;;;;5016924;28;88705;-70
2022/08/14 10:14:28;;;;;;;7.25;4.22;;;;;;;;;;5019363;28;88823;-70
2022/08/14 10:17:03;;;;;;;8.55;4.30;;;;;;;;;;5017595;28;88031;-70
2022/08/14 10:19:32;;;;;;;6.05;4.00;;;;;;;;;;5016782;28;87827;-71
2022/08/14 10:22:07;;;;;;;6.65;4.15;;;;;;;;;;5007892;28;87870;-70
2022/08/14 10:24:53;;;;;;;6.05;3.97;;;;;;;;;;4996900;28;88760;-70
2022/08/14 10:27:23;;;;;;;6.13;4.70;;;;;;;;;;4997425;28;89604;-69
2022/08/14 10:29:57;;;;;;;5.50;4.03;;;;;;;;;;4999085;28;89743;-69
2022/08/14 10:32:25;;;;;;;5.05;4.40;;;;;;;;;;5000818;28;88847;-71
2022/08/14 10:35:06;;;;;;;5.60;4.20;;;;;;;;;;5000730;28;87892;-71
2022/08/14 10:37:49;;;;;;;5.70;3.90;;;;;;;;;;5003329;28;88727;-71
2022/08/14 10:40:25;;;;;;;3.78;3.55;;;;;;;;;;5000551;28;88461;-71
2022/08/14 10:43:19;;;;;;;4.30;4.10;;;;;;;;;;4999740;28;88888;-70
2022/08/14 10:45:54;;;;;;;5.82;3.90;;;;;;;;;;4999906;28;88767;-71
2022/08/14 10:48:41;;;;;;;8.60;4.47;;;;;;;;;;5000503;28;88615;-70
2022/08/14 10:51:13;;;;;;;4.95;4.28;;;;;;;;;;4979695;28;89679;-71
2022/08/14 10:53:40;;;;;;;11.05;3.90;;;;;;;;;;4980032;28;88082;-71
2022/08/14 10:56:10;;;;;;;5.82;3.78;;;;;;;;;;4979927;28;88743;-71
2022/08/14 10:59:03;;;;;;;4.28;3.50;;;;;;;;;;4980153;28;89144;-70
2022/08/14 11:01:30;;;;;;;3.83;3.40;;;;;;;;;;4983676;28;88128;-71
2022/08/14 11:03:57;;;;;;;4.50;3.90;;;;;;;;;;4979034;28;89007;-70
2022/08/14 11:06:24;;;;;;;3.88;3.55;;;;;;;;;;4981090;28;88060;-70
2022/08/14 11:08:53;;;;;;;11.02;3.30;;;;;;;;;;4980040;28;89694;-70
2022/08/14 11:11:21;;;;;;;3.97;3.15;;;;;;;;;;4979497;28;88998;-70
2022/08/14 11:13:49;;;;;;;4.40;4.00;;;;;;;;;;4980351;28;87726;-70
2022/08/14 11:16:17;;;;;;;3.65;3.40;;;;;;;;;;4980052;28;88820;-69
2022/08/14 11:18:45;;;;;;;6.28;3.78;;;;;;;;;;4978763;28;89569;-69
2022/08/14 11:21:20;;;;;;;3.67;3.38;;;;;;;;;;5002096;28;90030;-70
2022/08/14 11:23:48;;;;;;;5.50;3.65;;;;;;;;;;4999151;28;89173;-70
2022/08/14 11:26:19;;;;;;;3.80;3.50;;;;;;;;;;4998956;28;88092;-69
2022/08/14 11:28:47;;;;;;;4.15;3.72;;;;;;;;;;4999643;28;88584;-70
2022/08/14 11:31:20;;;;;;;8.02;3.90;;;;;;;;;;4999714;28;89901;-70
2022/08/14 11:33:54;;;;;;;3.20;3.00;;;;;;;;;;4998941;28;88686;-70
2022/08/14 11:36:21;;;;;;;4.22;3.83;;;;;;;;;;4999825;28;88237;-69
2022/08/14 11:38:48;;;;;;;4.50;4.05;;;;;;;;;;4998443;28;89007;-70
2022/08/14 11:41:16;;;;;;;6.18;3.35;;;;;;;;;;4999653;28;88813;-69
2022/08/14 11:43:46;;;;;;;4.00;3.70;;;;;;;;;;5002620;28;88059;-69
2022/08/14 11:46:24;;;;;;;3.80;3.43;;;;;;;;;;4997631;28;89191;-69
2022/08/14 11:49:01;;;;;;;3.83;3.63;;;;;;;;;;5003360;28;89494;-69
2022/08/14 11:51:31;;;;;;;4.50;3.50;;;;;;;;;;4999502;28;89631;-69
2022/08/14 11:54:17;;;;;;;3.83;3.53;;;;;;;;;;4998509;28;89298;-69
2022/08/14 11:56:48;;;;;;;7.85;3.67;;;;;;;;;;4999153;28;88709;-69
2022/08/14 11:59:17;;;;;;;3.60;3.35;;;;;;;;;;4999311;28;89666;-69
2022/08/14 12:01:46;;;;;;;9.93;3.60;;;;;;;;;;4998316;28;89032;-69
2022/08/14 12:04:17;;;;;;;3.35;3.15;;;;;;;;;;4999639;28;89697;-71
2022/08/14 12:06:59;;;;;;;12.85;3.80;;;;;;;;;;5000989;28;88599;-69
2022/08/14 12:09:37;;;;;;;7.18;3.50;;;;;;;;;;4999360;28;88313;-69
2022/08/14 12:12:15;;;;;;;4.10;3.47;;;;;;;;;;4998595;28;88609;-69
2022/08/14 12:15:02;;;;;;;3.65;3.35;;;;;;;;;;4998284;28;88827;-69
2022/08/14 12:17:32;;;;;;;8.88;3.38;;;;;;;;;;4999176;28;88379;-69
2022/08/14 12:20:13;;;;;;;8.77;3.60;;;;;;;;;;4999123;28;89879;-71
2022/08/14 12:22:44;;;;;;;5.72;3.42;;;;;;;;;;4997915;28;89250;-70
2022/08/14 12:25:19;;;;;;;4.85;3.15;;;;;;;;;;4999059;28;88473;-70
2022/08/14 12:27:48;;;;;;;6.50;3.40;;;;;;;;;;4997795;28;88730;-70
2022/08/14 12:30:27;;;;;;;3.10;2.90;;;;;;;;;;5002377;28;87478;-70
2022/08/14 12:33:04;;;;;;;7.32;3.53;;;;;;;;;;4998979;28;88802;-70
2022/08/14 12:35:42;;;;;;;7.00;3.38;;;;;;;;;;4998025;28;88870;-71
2022/08/14 12:38:10;;;;;;;3.60;3.30;;;;;;;;;;4998087;28;88868;-69
2022/08/14 12:40:47;;;;;;;3.92;3.47;;;;;;;;;;4998350;28;90012;-71
2022/08/14 12:43:16;;;;;;;7.10;3.40;;;;;;;;;;4997879;28;88916;-71
2022/08/14 12:45:50;;;;;;;3.60;3.30;;;;;;;;;;4997740;28;88499;-71
2022/08/14 12:48:18;;;;;;;3.72;3.22;;;;;;;;;;5011640;28;88661;-71
2022/08/14 12:50:58;;;;;;;6.47;3.00;;;;;;;;;;5016561;28;87951;-71
2022/08/14 12:53:32;;;;;;;5.07;3.10;;;;;;;;;;5021529;28;88715;-71
2022/08/14 12:56:06;;;;;;;8.48;3.20;;;;;;;;;;5017987;28;87871;-71
2022/08/14 12:58:54;;;;;;;5.20;3.40;;;;;;;;;;5018307;28;88314;-70
2022/08/14 13:01:24;;;;;;;5.57;3.00;;;;;;;;;;5018512;28;89741;-70
2022/08/14 13:04:03;;;;;;;6.85;3.67;;;;;;;;;;5016791;28;89511;-71
2022/08/14 13:06:32;;;;;;;4.55;3.67;;;;;;;;;;5016680;28;90408;-71
2022/08/14 13:08:59;;;;;;;3.85;3.25;;;;;;;;;;4999207;28;88776;-71
2022/08/14 13:11:29;;;;;;;4.10;3.70;;;;;;;;;;4997104;28;88519;-71
2022/08/14 13:13:57;;;;;;;3.83;3.53;;;;;;;;;;4990636;28;88511;-71
2022/08/14 13:16:24;;;;;;;7.03;3.53;;;;;;;;;;5001099;28;88779;-71
2022/08/14 13:19:05;;;;;;;3.30;3.20;;;;;;;;;;5011320;28;88731;-71
2022/08/14 13:21:38;;;;;;;5.72;3.72;;;;;;;;;;5018414;28;89045;-71
2022/08/14 13:24:24;;;;;;;3.55;3.35;;;;;;;;;;5017379;28;88722;-71
2022/08/14 13:26:59;;;;;;;4.45;3.83;;;;;;;;;;5017808;28;89474;-71
2022/08/14 13:29:30;;;;;;;8.57;4.10;;;;;;;;;;5017516;28;89459;-71
2022/08/14 13:31:57;;;;;;;5.88;3.65;;;;;;;;;;5016890;28;88140;-71
2022/08/14 13:34:24;;;;;;;3.75;3.50;;;;;;;;;;5017399;28;88812;-71
2022/08/14 13:36:51;;;;;;;4.03;3.28;;;;;;;;;;5020433;28;89922;-71
2022/08/14 13:39:28;;;;;;;4.00;3.50;;;;;;;;;;5017247;28;89252;-71
2022/08/14 13:41:57;;;;;;;3.65;3.35;;;;;;;;;;5017547;28;89753;-71
2022/08/14 13:44:25;;;;;;;3.53;3.10;;;;;;;;;;5017816;28;88714;-71
2022/08/14 13:46:51;;;;;;;5.78;3.60;;;;;;;;;;5010729;28;88545;-69
2022/08/14 13:49:18;;;;;;;6.97;3.55;;;;;;;;;;4997769;28;89638;-69
2022/08/14 13:51:48;;;;;;;4.60;3.28;;;;;;;;;;4997294;28;88763;-69
2022/08/14 13:54:19;;;;;;;3.90;3.20;;;;;;;;;;4996420;28;89331;-69
2022/08/14 13:56:46;;;;;;;4.60;3.08;;;;;;;;;;4997276;28;89637;-69
2022/08/14 13:59:13;;;;;;;3.75;3.35;;;;;;;;;;4999805;28;88153;-69
2022/08/14 14:01:46;;;;;;;5.25;3.50;;;;;;;;;;4997881;28;89251;-70
2022/08/14 14:04:17;;;;;;;;;;;;;;;;;;5001636;28;88657;-69
2022/08/14 14:06:46;;;;;;;3.92;3.50;;;;;;;;;;5000503;28;119510;-69
2022/08/14 14:09:14;;;;;;;3.70;3.50;;;;;;;;;;5001326;28;89689;-69
2022/08/14 14:11:42;;;;;;;5.10;3.30;;;;;;;;;;5000936;28;88810;-69
2022/08/14 14:14:10;;;;;;;4.13;3.50;;;;;;;;;;5000063;28;88082;-69
2022/08/14 14:16:57;;;;;;;3.65;3.45;;;;;;;;;;5000872;28;88632;-70
2022/08/14 14:19:24;;;;;;;3.35;3.05;;;;;;;;;;5000468;28;89026;-69
2022/08/14 14:21:55;;;;;;;4.50;3.85;;;;;;;;;;5002651;28;90375;-69
2022/08/14 14:24:22;;;;;;;3.60;3.40;;;;;;;;;;5000609;28;88044;-70
2022/08/14 14:26:59;;;;;;;4.93;3.20;;;;;;;;;;5000569;28;89645;-70
2022/08/14 14:29:50;;;;;;;4.28;3.47;;;;;;;;;;5000531;28;89120;-70
2022/08/14 14:32:26;;;;;;;4.03;3.70;;;;;;;;;;5001109;28;88020;-70
2022/08/14 14:35:01;;;;;;;8.02;3.90;;;;;;;;;;4999660;28;89355;-70
2022/08/14 14:37:28;;;;;;;6.97;3.35;;;;;;;;;;5001192;28;88092;-70
2022/08/14 14:39:56;;;;;;;7.53;3.40;;;;;;;;;;5000310;28;88688;-70
2022/08/14 14:42:47;;;;;;;5.38;3.38;;;;;;;;;;4999560;28;88582;-70
2022/08/14 14:45:18;;;;;;;7.07;3.58;;;;;;;;;;5002750;28;89692;-70
2022/08/14 14:47:46;;;;;;;3.40;3.20;;;;;;;;;;5013969;28;89481;-70
2022/08/14 14:50:14;;;;;;;4.57;3.92;;;;;;;;;;5019617;28;88820;-70
2022/08/14 14:52:42;;;;;;;4.70;3.42;;;;;;;;;;5020231;28;88887;-70
2022/08/14 14:55:11;;;;;;;3.72;3.40;;;;;;;;;;5020088;28;88790;-70
2022/08/14 14:57:42;;;;;;;4.63;3.38;;;;;;;;;;5018701;28;88809;-70
2022/08/14 15:00:18;;;;;;;3.47;3.03;;;;;;;;;;5020105;28;88040;-70
2022/08/14 15:02:47;;;;;;;3.80;3.38;;;;;;;;;;5019375;28;88941;-70
2022/08/14 15:05:16;;;;;;;4.60;3.40;;;;;;;;;;5002900;28;88991;-70
2022/08/14 15:07:45;;;;;;;5.78;3.50;;;;;;;;;;5003034;28;88791;-71
2022/08/14 15:10:14;;;;;;;4.57;3.45;;;;;;;;;;4998662;28;89009;-70
2022/08/14 15:12:57;;;;;;;3.67;3.30;;;;;;;;;;4999686;28;87939;-71
2022/08/14 15:15:29;;;;;;;3.85;3.50;;;;;;;;;;4999871;28;88770;-71
2022/08/14 15:17:58;;;;;;;3.88;3.58;;;;;;;;;;4998935;28;88917;-70
2022/08/14 15:20:26;;;;;;;3.50;3.30;;;;;;;;;;4999857;28;88938;-70
2022/08/14 15:22:56;;;;;;;4.25;3.50;;;;;;;;;;4999448;28;89412;-71
2022/08/14 15:25:23;;;;;;;5.82;3.50;;;;;;;;;;4999242;28;89084;-71
2022/08/14 15:27:50;;;;;;;3.92;3.33;;;;;;;;;;4999984;28;87952;-71
2022/08/14 15:30:20;;;;;;;4.95;3.45;;;;;;;;;;5002865;28;88119;-71